sensor_id;sensor_type;location;lat;lon;timestamp;pressure;altitude;pressure_sealevel;temperature;humidity
34742;BME280;20968;42.696;23.360;2023-04-22T00:02:07;94928.69;;;13.38;61.71
34742;BME280;20968;42.696;23.360;2023-04-22T00:04:33;94920.91;;;13.37;61.43
34742;BME280;20968;42.696;23.360;2023-04-22T00:06:59;94923.41;;;13.40;62.07
34742;BME280;20968;42.696;23.360;2023-04-22T00:09:25;94921.41;;;13.35;61.23
34742;BME280;20968;42.696;23.360;2023-04-22T00:11:53;94929.47;;;13.39;61.16
34742;BME280;20968;42.696;23.360;2023-04-22T00:14:18;94927.66;;;13.25;62.11
34742;BME280;20968;42.696;23.360;2023-04-22T00:16:45;94924.91;;;13.30;61.25
34742;BME280;20968;42.696;23.360;2023-04-22T00:19:10;94928.44;;;13.31;61.75
34742;BME280;20968;42.696;23.360;2023-04-22T00:21:37;94920.38;;;13.22;61.87
34742;BME280;20968;42.696;23.360;2023-04-22T00:24:03;94914.09;;;13.21;61.88
34742;BME280;20968;42.696;23.360;2023-04-22T00:26:31;94924.41;;;13.16;61.98
34742;BME280;20968;42.696;23.360;2023-04-22T00:28:57;94922.91;;;13.20;62.24
34742;BME280;20968;42.696;23.360;2023-04-22T00:31:24;94927.44;;;13.23;62.34
34742;BME280;20968;42.696;23.360;2023-04-22T00:34:13;94932.69;;;13.21;62.66
34742;BME280;20968;42.696;23.360;2023-04-22T00:36:38;94935.72;;;13.23;62.41
34742;BME280;20968;42.696;23.360;2023-04-22T00:39:08;94937.72;;;13.22;62.86
34742;BME280;20968;42.696;23.360;2023-04-22T00:41:33;94939.97;;;13.13;62.46
34742;BME280;20968;42.696;23.360;2023-04-22T00:44:00;94935.94;;;13.03;62.66
34742;BME280;20968;42.696;23.360;2023-04-22T00:46:32;94933.19;;;12.98;63.69
34742;BME280;20968;42.696;23.360;2023-04-22T00:48:59;94942.19;;;12.93;64.16
34742;BME280;20968;42.696;23.360;2023-04-22T00:51:38;94947.25;;;12.94;63.36
34742;BME280;20968;42.696;23.360;2023-04-22T00:54:06;94950.19;;;12.85;63.31
34742;BME280;20968;42.696;23.360;2023-04-22T00:56:32;94938.09;;;12.77;62.20
34742;BME280;20968;42.696;23.360;2023-04-22T00:59:03;94943.63;;;12.72;63.07
34742;BME280;20968;42.696;23.360;2023-04-22T01:01:31;94946.63;;;12.68;62.66
34742;BME280;20968;42.696;23.360;2023-04-22T01:04:03;94945.34;;;12.64;62.97
34742;BME280;20968;42.696;23.360;2023-04-22T01:06:34;94951.84;;;12.61;62.83
34742;BME280;20968;42.696;23.360;2023-04-22T01:09:03;94941.53;;;12.56;63.58
34742;BME280;20968;42.696;23.360;2023-04-22T01:11:32;94953.56;;;12.53;63.29
34742;BME280;20968;42.696;23.360;2023-04-22T01:14:02;94947.03;;;12.45;63.84
34742;BME280;20968;42.696;23.360;2023-04-22T01:16:54;94944.94;;;12.29;63.03
34742;BME280;20968;42.696;23.360;2023-04-22T01:19:22;94948.72;;;12.32;63.64
34742;BME280;20968;42.696;23.360;2023-04-22T01:21:55;94948.19;;;12.28;63.46
34742;BME280;20968;42.696;23.360;2023-04-22T01:24:22;94928.28;;;12.13;63.91
34742;BME280;20968;42.696;23.360;2023-04-22T01:26:50;94939.81;;;12.11;63.57
34742;BME280;20968;42.696;23.360;2023-04-22T01:29:16;94936.34;;;12.16;64.73
34742;BME280;20968;42.696;23.360;2023-04-22T01:31:42;94934.78;;;12.04;64.50
34742;BME280;20968;42.696;23.360;2023-04-22T01:34:08;94945.53;;;12.02;65.14
34742;BME280;20968;42.696;23.360;2023-04-22T01:36:35;94931.69;;;11.97;64.94
34742;BME280;20968;42.696;23.360;2023-04-22T01:39:01;94938.50;;;12.01;65.36
34742;BME280;20968;42.696;23.360;2023-04-22T01:41:29;94940.78;;;12.03;65.81
34742;BME280;20968;42.696;23.360;2023-04-22T01:43:56;94940.81;;;12.08;65.10
34742;BME280;20968;42.696;23.360;2023-04-22T01:46:30;94932.22;;;11.95;65.37
34742;BME280;20968;42.696;23.360;2023-04-22T01:48:57;94936.22;;;11.94;64.84
34742;BME280;20968;42.696;23.360;2023-04-22T01:51:30;94945.03;;;12.04;65.71
34742;BME280;20968;42.696;23.360;2023-04-22T01:53:55;94940.56;;;12.12;65.22
34742;BME280;20968;42.696;23.360;2023-04-22T01:56:21;94931.25;;;12.04;65.29
34742;BME280;20968;42.696;23.360;2023-04-22T01:58:47;94932.28;;;12.06;65.33
34742;BME280;20968;42.696;23.360;2023-04-22T02:01:12;94934.31;;;12.11;65.27
34742;BME280;20968;42.696;23.360;2023-04-22T02:03:38;94937.09;;;12.17;65.43
34742;BME280;20968;42.696;23.360;2023-04-22T02:06:04;94937.84;;;12.17;65.81
34742;BME280;20968;42.696;23.360;2023-04-22T02:08:31;94940.63;;;12.23;65.05
34742;BME280;20968;42.696;23.360;2023-04-22T02:10:56;94934.09;;;12.20;65.60
34742;BME280;20968;42.696;23.360;2023-04-22T02:13:38;94928.38;;;12.29;64.95
34742;BME280;20968;42.696;23.360;2023-04-22T02:16:04;94939.44;;;12.29;65.26
34742;BME280;20968;42.696;23.360;2023-04-22T02:18:51;94933.38;;;12.25;65.19
34742;BME280;20968;42.696;23.360;2023-04-22T02:21:17;94936.41;;;12.27;64.87
34742;BME280;20968;42.696;23.360;2023-04-22T02:23:42;94945.22;;;12.37;64.99
34742;BME280;20968;42.696;23.360;2023-04-22T02:26:08;94934.22;;;12.42;64.85
34742;BME280;20968;42.696;23.360;2023-04-22T02:28:34;94935.22;;;12.44;64.53
34742;BME280;20968;42.696;23.360;2023-04-22T02:31:00;94950.56;;;12.51;65.00
34742;BME280;20968;42.696;23.360;2023-04-22T02:33:26;94943.53;;;12.50;65.29
34742;BME280;20968;42.696;23.360;2023-04-22T02:35:53;94940.25;;;12.51;64.33
34742;BME280;20968;42.696;23.360;2023-04-22T02:38:18;94945.06;;;12.56;64.25
34742;BME280;20968;42.696;23.360;2023-04-22T02:40:45;94938.00;;;12.50;64.09
34742;BME280;20968;42.696;23.360;2023-04-22T02:43:11;94946.53;;;12.46;64.18
34742;BME280;20968;42.696;23.360;2023-04-22T02:45:38;94950.03;;;12.47;65.04
34742;BME280;20968;42.696;23.360;2023-04-22T02:48:05;94941.75;;;12.47;64.63
34742;BME280;20968;42.696;23.360;2023-04-22T02:50:31;94953.34;;;12.51;64.96
34742;BME280;20968;42.696;23.360;2023-04-22T02:52:57;94945.78;;;12.51;64.41
34742;BME280;20968;42.696;23.360;2023-04-22T02:55:23;94945.56;;;12.55;63.42
34742;BME280;20968;42.696;23.360;2023-04-22T02:57:49;94955.09;;;12.54;64.39
34742;BME280;20968;42.696;23.360;2023-04-22T03:00:17;94946.78;;;12.43;64.06
34742;BME280;20968;42.696;23.360;2023-04-22T03:02:43;94949.53;;;12.43;64.71
34742;BME280;20968;42.696;23.360;2023-04-22T03:05:09;94940.47;;;12.37;65.06
34742;BME280;20968;42.696;23.360;2023-04-22T03:07:35;94948.03;;;12.42;64.72
34742;BME280;20968;42.696;23.360;2023-04-22T03:10:01;94948.75;;;12.42;64.69
34742;BME280;20968;42.696;23.360;2023-04-22T03:12:27;94948.25;;;12.39;64.34
34742;BME280;20968;42.696;23.360;2023-04-22T03:14:52;94961.56;;;12.40;64.55
34742;BME280;20968;42.696;23.360;2023-04-22T03:17:18;94964.34;;;12.45;64.28
34742;BME280;20968;42.696;23.360;2023-04-22T03:19:52;94960.56;;;12.43;64.87
34742;BME280;20968;42.696;23.360;2023-04-22T03:22:17;94954.00;;;12.35;64.65
34742;BME280;20968;42.696;23.360;2023-04-22T03:24:47;94963.81;;;12.36;64.45
34742;BME280;20968;42.696;23.360;2023-04-22T03:27:12;94958.75;;;12.29;64.16
34742;BME280;20968;42.696;23.360;2023-04-22T03:29:38;94963.75;;;12.25;64.02
34742;BME280;20968;42.696;23.360;2023-04-22T03:32:03;94974.28;;;12.21;64.17
34742;BME280;20968;42.696;23.360;2023-04-22T03:34:29;94969.22;;;12.14;64.12
34742;BME280;20968;42.696;23.360;2023-04-22T03:36:56;94974.41;;;12.07;65.13
34742;BME280;20968;42.696;23.360;2023-04-22T03:39:24;94970.84;;;11.95;64.18
34742;BME280;20968;42.696;23.360;2023-04-22T03:41:49;94974.56;;;11.92;65.19
34742;BME280;20968;42.696;23.360;2023-04-22T03:44:15;94991.44;;;12.00;64.92
34742;BME280;20968;42.696;23.360;2023-04-22T03:46:40;94985.88;;;11.94;65.07
34742;BME280;20968;42.696;23.360;2023-04-22T03:49:06;94975.06;;;11.91;65.63
34742;BME280;20968;42.696;23.360;2023-04-22T03:51:33;94983.63;;;11.93;65.08
34742;BME280;20968;42.696;23.360;2023-04-22T03:54:00;94985.88;;;11.94;64.54
34742;BME280;20968;42.696;23.360;2023-04-22T03:56:33;94980.34;;;11.94;65.14
34742;BME280;20968;42.696;23.360;2023-04-22T03:59:04;94988.16;;;11.96;65.06
34742;BME280;20968;42.696;23.360;2023-04-22T04:01:29;94994.94;;;12.00;65.13
34742;BME280;20968;42.696;23.360;2023-04-22T04:03:55;94991.75;;;12.07;65.64
34742;BME280;20968;42.696;23.360;2023-04-22T04:06:21;94989.47;;;12.06;65.01
34742;BME280;20968;42.696;23.360;2023-04-22T04:08:46;94990.94;;;12.01;65.04
34742;BME280;20968;42.696;23.360;2023-04-22T04:11:16;94993.50;;;12.10;65.33
34742;BME280;20968;42.696;23.360;2023-04-22T04:13:41;94991.03;;;12.12;64.93
34742;BME280;20968;42.696;23.360;2023-04-22T04:16:06;94997.28;;;12.13;64.63
34742;BME280;20968;42.696;23.360;2023-04-22T04:18:32;94989.00;;;12.13;64.80
34742;BME280;20968;42.696;23.360;2023-04-22T04:20:57;94993.59;;;12.21;64.98
34742;BME280;20968;42.696;23.360;2023-04-22T04:23:23;94993.31;;;12.19;64.70
34742;BME280;20968;42.696;23.360;2023-04-22T04:25:48;94995.09;;;12.22;65.00
34742;BME280;20968;42.696;23.360;2023-04-22T04:28:15;95006.44;;;12.30;64.63
34742;BME280;20968;42.696;23.360;2023-04-22T04:30:42;94997.59;;;12.20;63.93
34742;BME280;20968;42.696;23.360;2023-04-22T04:33:08;95005.41;;;12.27;64.96
34742;BME280;20968;42.696;23.360;2023-04-22T04:35:35;95009.69;;;12.28;64.44
34742;BME280;20968;42.696;23.360;2023-04-22T04:38:05;95022.53;;;12.37;64.82
34742;BME280;20968;42.696;23.360;2023-04-22T04:40:33;95023.31;;;12.37;64.16
34742;BME280;20968;42.696;23.360;2023-04-22T04:42:59;95019.28;;;12.38;63.79
34742;BME280;20968;42.696;23.360;2023-04-22T04:45:26;95025.59;;;12.44;63.48
34742;BME280;20968;42.696;23.360;2023-04-22T04:47:52;95037.44;;;12.50;62.86
34742;BME280;20968;42.696;23.360;2023-04-22T04:50:19;95036.69;;;12.55;61.92
34742;BME280;20968;42.696;23.360;2023-04-22T04:52:48;95027.94;;;12.56;61.90
34742;BME280;20968;42.696;23.360;2023-04-22T04:55:14;95043.50;;;12.59;62.17
34742;BME280;20968;42.696;23.360;2023-04-22T04:57:40;95047.78;;;12.60;62.53
34742;BME280;20968;42.696;23.360;2023-04-22T05:00:06;95043.47;;;12.54;61.20
34742;BME280;20968;42.696;23.360;2023-04-22T05:02:32;95043.69;;;12.45;61.04
34742;BME280;20968;42.696;23.360;2023-04-22T05:04:57;95037.91;;;12.43;60.78
34742;BME280;20968;42.696;23.360;2023-04-22T05:07:23;95043.00;;;12.55;61.44
34742;BME280;20968;42.696;23.360;2023-04-22T05:09:48;95055.09;;;12.69;60.86
34742;BME280;20968;42.696;23.360;2023-04-22T05:12:14;95031.97;;;12.61;61.52
34742;BME280;20968;42.696;23.360;2023-04-22T05:14:39;95047.09;;;12.71;60.99
34742;BME280;20968;42.696;23.360;2023-04-22T05:17:05;95055.16;;;12.80;61.23
34742;BME280;20968;42.696;23.360;2023-04-22T05:19:31;95047.03;;;12.60;61.76
34742;BME280;20968;42.696;23.360;2023-04-22T05:21:56;95058.91;;;12.71;61.29
34742;BME280;20968;42.696;23.360;2023-04-22T05:24:22;95063.50;;;12.85;61.40
34742;BME280;20968;42.696;23.360;2023-04-22T05:26:47;95047.16;;;12.82;60.45
34742;BME280;20968;42.696;23.360;2023-04-22T05:29:13;95061.09;;;13.04;61.37
34742;BME280;20968;42.696;23.360;2023-04-22T05:31:38;95055.63;;;13.20;60.65
34742;BME280;20968;42.696;23.360;2023-04-22T05:34:04;95051.38;;;13.30;59.96
34742;BME280;20968;42.696;23.360;2023-04-22T05:36:29;95046.16;;;13.65;68.42
34742;BME280;20968;42.696;23.360;2023-04-22T05:38:56;95045.94;;;14.06;66.94
34742;BME280;20968;42.696;23.360;2023-04-22T05:41:21;95039.91;;;14.41;65.46
34742;BME280;20968;42.696;23.360;2023-04-22T05:43:51;95048.91;;;14.63;63.90
34742;BME280;20968;42.696;23.360;2023-04-22T05:46:16;95046.88;;;14.80;62.66
34742;BME280;20968;42.696;23.360;2023-04-22T05:48:42;95053.34;;;15.04;61.39
34742;BME280;20968;42.696;23.360;2023-04-22T05:51:10;95043.72;;;15.16;59.28
34742;BME280;20968;42.696;23.360;2023-04-22T05:53:49;95049.50;;;15.24;56.44
34742;BME280;20968;42.696;23.360;2023-04-22T05:56:15;95050.81;;;15.06;54.64
34742;BME280;20968;42.696;23.360;2023-04-22T05:58:40;95055.81;;;15.24;55.89
34742;BME280;20968;42.696;23.360;2023-04-22T06:01:06;95043.72;;;15.16;55.45
34742;BME280;20968;42.696;23.360;2023-04-22T06:03:31;95047.28;;;15.06;56.06
34742;BME280;20968;42.696;23.360;2023-04-22T06:05:57;95051.78;;;15.25;56.02
34742;BME280;20968;42.696;23.360;2023-04-22T06:08:22;95045.69;;;15.32;55.80
34742;BME280;20968;42.696;23.360;2023-04-22T06:10:48;95048.66;;;15.45;55.61
34742;BME280;20968;42.696;23.360;2023-04-22T06:13:14;95049.66;;;15.42;54.47
34742;BME280;20968;42.696;23.360;2023-04-22T06:15:40;95047.56;;;15.59;54.47
34742;BME280;20968;42.696;23.360;2023-04-22T06:18:07;95055.06;;;15.69;53.98
34742;BME280;20968;42.696;23.360;2023-04-22T06:20:35;95054.78;;;15.73;53.51
34742;BME280;20968;42.696;23.360;2023-04-22T06:23:01;95057.63;;;15.62;53.71
34742;BME280;20968;42.696;23.360;2023-04-22T06:25:31;95065.41;;;15.69;54.06
34742;BME280;20968;42.696;23.360;2023-04-22T06:27:57;95064.84;;;15.81;54.37
34742;BME280;20968;42.696;23.360;2023-04-22T06:30:25;95064.56;;;15.85;54.08
34742;BME280;20968;42.696;23.360;2023-04-22T06:32:55;95053.28;;;15.72;53.55
34742;BME280;20968;42.696;23.360;2023-04-22T06:35:20;95054.19;;;15.85;54.48
34742;BME280;20968;42.696;23.360;2023-04-22T06:37:49;95069.97;;;16.07;54.75
34742;BME280;20968;42.696;23.360;2023-04-22T06:40:15;95068.56;;;16.24;55.31
34742;BME280;20968;42.696;23.360;2023-04-22T06:42:40;95061.44;;;16.34;55.53
34742;BME280;20968;42.696;23.360;2023-04-22T06:45:06;95066.75;;;16.32;54.25
34742;BME280;20968;42.696;23.360;2023-04-22T06:47:38;95056.81;;;16.42;53.17
34742;BME280;20968;42.696;23.360;2023-04-22T06:50:06;95058.19;;;16.30;53.45
34742;BME280;20968;42.696;23.360;2023-04-22T06:52:31;95062.06;;;16.16;54.23
34742;BME280;20968;42.696;23.360;2023-04-22T06:54:57;95058.56;;;16.10;54.50
34742;BME280;20968;42.696;23.360;2023-04-22T06:57:23;95056.91;;;16.26;54.76
34742;BME280;20968;42.696;23.360;2023-04-22T06:59:48;95062.19;;;16.35;55.44
34742;BME280;20968;42.696;23.360;2023-04-22T07:02:14;95063.97;;;16.32;55.23
34742;BME280;20968;42.696;23.360;2023-04-22T07:04:41;95065.84;;;16.48;54.08
34742;BME280;20968;42.696;23.360;2023-04-22T07:07:06;95059.19;;;16.56;53.58
34742;BME280;20968;42.696;23.360;2023-04-22T07:09:33;95073.91;;;16.81;54.32
34742;BME280;20968;42.696;23.360;2023-04-22T07:12:00;95064.19;;;16.87;53.59
34742;BME280;20968;42.696;23.360;2023-04-22T07:14:25;95063.63;;;16.94;56.25
34742;BME280;20968;42.696;23.360;2023-04-22T07:16:52;95068.06;;;17.26;54.08
34742;BME280;20968;42.696;23.360;2023-04-22T07:19:18;95059.78;;;17.45;52.61
34742;BME280;20968;42.696;23.360;2023-04-22T07:21:46;95064.97;;;17.54;52.35
34742;BME280;20968;42.696;23.360;2023-04-22T07:24:21;95060.22;;;17.67;51.99
34742;BME280;20968;42.696;23.360;2023-04-22T07:26:51;95061.88;;;17.76;51.85
34742;BME280;20968;42.696;23.360;2023-04-22T07:29:18;95059.53;;;17.80;52.83
34742;BME280;20968;42.696;23.360;2023-04-22T07:31:48;95065.75;;;18.04;51.79
34742;BME280;20968;42.696;23.360;2023-04-22T07:34:17;95071.16;;;18.33;51.94
34742;BME280;20968;42.696;23.360;2023-04-22T07:36:43;95069.84;;;18.21;50.83
34742;BME280;20968;42.696;23.360;2023-04-22T07:39:26;95073.97;;;18.33;50.89
34742;BME280;20968;42.696;23.360;2023-04-22T07:42:00;95062.56;;;18.31;49.93
34742;BME280;20968;42.696;23.360;2023-04-22T07:44:43;95073.22;;;18.33;50.38
34742;BME280;20968;42.696;23.360;2023-04-22T07:47:11;95058.28;;;18.30;51.12
34742;BME280;20968;42.696;23.360;2023-04-22T07:49:36;95063.84;;;18.62;49.19
34742;BME280;20968;42.696;23.360;2023-04-22T07:52:09;95062.50;;;18.81;49.12
34742;BME280;20968;42.696;23.360;2023-04-22T07:54:43;95063.69;;;18.98;46.67
34742;BME280;20968;42.696;23.360;2023-04-22T07:57:21;95056.31;;;19.14;47.32
34742;BME280;20968;42.696;23.360;2023-04-22T07:59:48;95054.50;;;19.29;46.34
34742;BME280;20968;42.696;23.360;2023-04-22T08:02:45;95057.38;;;18.98;45.37
34742;BME280;20968;42.696;23.360;2023-04-22T08:05:14;95055.88;;;19.23;46.31
34742;BME280;20968;42.696;23.360;2023-04-22T08:07:46;95053.97;;;19.18;45.88
34742;BME280;20968;42.696;23.360;2023-04-22T08:10:24;95052.84;;;19.47;46.27
34742;BME280;20968;42.696;23.360;2023-04-22T08:12:54;95046.72;;;19.48;44.35
34742;BME280;20968;42.696;23.360;2023-04-22T08:15:20;95049.41;;;19.53;45.06
34742;BME280;20968;42.696;23.360;2023-04-22T08:17:47;95039.28;;;19.63;44.63
34742;BME280;20968;42.696;23.360;2023-04-22T08:20:13;95041.53;;;19.78;44.65
34742;BME280;20968;42.696;23.360;2023-04-22T08:22:39;95049.16;;;19.77;43.13
34742;BME280;20968;42.696;23.360;2023-04-22T08:25:07;95043.59;;;19.52;42.73
34742;BME280;20968;42.696;23.360;2023-04-22T08:27:38;95039.88;;;19.36;43.74
34742;BME280;20968;42.696;23.360;2023-04-22T08:30:22;95045.91;;;19.14;42.35
34742;BME280;20968;42.696;23.360;2023-04-22T08:32:53;95032.03;;;18.96;43.25
34742;BME280;20968;42.696;23.360;2023-04-22T08:35:19;95029.16;;;19.14;43.98
34742;BME280;20968;42.696;23.360;2023-04-22T08:37:44;95019.44;;;19.41;43.45
34742;BME280;20968;42.696;23.360;2023-04-22T08:40:10;95013.97;;;19.49;42.42
34742;BME280;20968;42.696;23.360;2023-04-22T08:42:36;95019.97;;;19.52;42.09
34742;BME280;20968;42.696;23.360;2023-04-22T08:45:02;95023.09;;;19.49;42.06
34742;BME280;20968;42.696;23.360;2023-04-22T08:47:30;95020.06;;;19.60;41.42
34742;BME280;20968;42.696;23.360;2023-04-22T08:50:01;95008.00;;;19.65;42.02
34742;BME280;20968;42.696;23.360;2023-04-22T08:52:29;95004.03;;;19.73;41.12
34742;BME280;20968;42.696;23.360;2023-04-22T08:54:55;95001.72;;;19.85;41.42
34742;BME280;20968;42.696;23.360;2023-04-22T08:57:22;94998.59;;;19.88;40.40
34742;BME280;20968;42.696;23.360;2023-04-22T09:00:01;95003.00;;;19.97;39.83
34742;BME280;20968;42.696;23.360;2023-04-22T09:02:43;95000.47;;;20.06;39.32
34742;BME280;20968;42.696;23.360;2023-04-22T09:05:15;95001.78;;;19.92;39.49
34742;BME280;20968;42.696;23.360;2023-04-22T09:11:04;94993.03;;;19.75;39.77
34742;BME280;20968;42.696;23.360;2023-04-22T09:13:53;94995.38;;;19.84;39.27
34742;BME280;20968;42.696;23.360;2023-04-22T09:16:33;94987.19;;;19.53;40.08
34742;BME280;20968;42.696;23.360;2023-04-22T09:19:10;94989.09;;;19.58;39.55
34742;BME280;20968;42.696;23.360;2023-04-22T09:21:39;94998.56;;;19.68;39.93
34742;BME280;20968;42.696;23.360;2023-04-22T09:24:15;94991.53;;;19.74;39.48
34742;BME280;20968;42.696;23.360;2023-04-22T09:26:41;94978.47;;;19.90;38.89
34742;BME280;20968;42.696;23.360;2023-04-22T09:29:15;94978.31;;;20.08;39.02
34742;BME280;20968;42.696;23.360;2023-04-22T09:31:46;94983.81;;;20.62;39.79
34742;BME280;20968;42.696;23.360;2023-04-22T09:34:44;94985.00;;;20.74;37.84
34742;BME280;20968;42.696;23.360;2023-04-22T09:40:08;94981.00;;;20.62;38.60
34742;BME280;20968;42.696;23.360;2023-04-22T09:42:51;94981.22;;;20.64;38.31
34742;BME280;20968;42.696;23.360;2023-04-22T09:45:39;94986.03;;;20.84;38.85
34742;BME280;20968;42.696;23.360;2023-04-22T09:48:17;94980.41;;;21.12;39.33
34742;BME280;20968;42.696;23.360;2023-04-22T09:51:17;94980.31;;;20.69;39.43
34742;BME280;20968;42.696;23.360;2023-04-22T09:53:44;94983.44;;;20.37;40.59
34742;BME280;20968;42.696;23.360;2023-04-22T09:56:49;94987.44;;;20.09;40.71
34742;BME280;20968;42.696;23.360;2023-04-22T09:59:28;95004.22;;;19.75;39.80
34742;BME280;20968;42.696;23.360;2023-04-22T10:02:00;94995.50;;;19.33;40.56
34742;BME280;20968;42.696;23.360;2023-04-22T10:04:28;94988.84;;;19.36;41.59
34742;BME280;20968;42.696;23.360;2023-04-22T10:06:57;94980.91;;;18.88;40.47
34742;BME280;20968;42.696;23.360;2023-04-22T10:09:24;94982.41;;;19.02;41.89
34742;BME280;20968;42.696;23.360;2023-04-22T10:11:57;94984.63;;;19.42;41.21
34742;BME280;20968;42.696;23.360;2023-04-22T10:14:45;94989.03;;;19.84;40.47
34742;BME280;20968;42.696;23.360;2023-04-22T10:17:24;94977.03;;;20.09;38.28
34742;BME280;20968;42.696;23.360;2023-04-22T10:19:52;94975.16;;;20.12;38.65
34742;BME280;20968;42.696;23.360;2023-04-22T10:22:23;94985.47;;;20.37;36.99
34742;BME280;20968;42.696;23.360;2023-04-22T10:25:01;94966.69;;;20.45;37.40
34742;BME280;20968;42.696;23.360;2023-04-22T10:27:39;94960.06;;;20.55;35.26
34742;BME280;20968;42.696;23.360;2023-04-22T10:30:25;94957.47;;;20.85;35.59
34742;BME280;20968;42.696;23.360;2023-04-22T10:34:21;94963.16;;;20.93;37.73
34742;BME280;20968;42.696;23.360;2023-04-22T10:37:18;94964.09;;;21.30;34.83
34742;BME280;20968;42.696;23.360;2023-04-22T10:43:18;94951.56;;;21.67;34.14
34742;BME280;20968;42.696;23.360;2023-04-22T10:49:49;94957.06;;;22.09;33.52
34742;BME280;20968;42.696;23.360;2023-04-22T10:56:17;94946.81;;;22.72;31.69
34742;BME280;20968;42.696;23.360;2023-04-22T10:59:56;94940.09;;;22.60;31.36
34742;BME280;20968;42.696;23.360;2023-04-22T11:03:15;94951.31;;;22.60;30.72
34742;BME280;20968;42.696;23.360;2023-04-22T11:06:19;94940.47;;;22.49;31.86
34742;BME280;20968;42.696;23.360;2023-04-22T11:09:22;94948.88;;;22.49;31.63
34742;BME280;20968;42.696;23.360;2023-04-22T11:15:21;94942.53;;;22.33;33.11
34742;BME280;20968;42.696;23.360;2023-04-22T11:17:52;94954.44;;;22.04;35.58
34742;BME280;20968;42.696;23.360;2023-04-22T11:20:36;94962.75;;;21.59;37.66
34742;BME280;20968;42.696;23.360;2023-04-22T11:23:05;94964.13;;;21.81;38.37
34742;BME280;20968;42.696;23.360;2023-04-22T11:25:41;94960.38;;;21.78;38.15
34742;BME280;20968;42.696;23.360;2023-04-22T11:28:15;94966.97;;;21.53;39.36
34742;BME280;20968;42.696;23.360;2023-04-22T11:31:45;94984.69;;;21.83;39.00
34742;BME280;20968;42.696;23.360;2023-04-22T11:34:34;94982.28;;;21.94;36.44
34742;BME280;20968;42.696;23.360;2023-04-22T11:37:06;94983.00;;;21.80;37.50
34742;BME280;20968;42.696;23.360;2023-04-22T11:39:51;94966.47;;;21.54;37.58
34742;BME280;20968;42.696;23.360;2023-04-22T11:42:35;94986.72;;;21.75;37.32
34742;BME280;20968;42.696;23.360;2023-04-22T11:45:00;94983.94;;;21.83;36.68
34742;BME280;20968;42.696;23.360;2023-04-22T11:47:49;94998.38;;;21.51;37.21
34742;BME280;20968;42.696;23.360;2023-04-22T11:50:41;94985.16;;;21.59;37.09
34742;BME280;20968;42.696;23.360;2023-04-22T11:53:34;94990.81;;;21.74;36.77
34742;BME280;20968;42.696;23.360;2023-04-22T11:56:08;95004.47;;;21.78;37.47
34742;BME280;20968;42.696;23.360;2023-04-22T11:58:37;95007.28;;;21.42;38.73
34742;BME280;20968;42.696;23.360;2023-04-22T12:07:53;95001.34;;;21.89;36.93
34742;BME280;20968;42.696;23.360;2023-04-22T12:10:29;95006.75;;;21.79;36.90
34742;BME280;20968;42.696;23.360;2023-04-22T12:12:58;95012.19;;;21.14;36.99
34742;BME280;20968;42.696;23.360;2023-04-22T12:15:37;95008.03;;;21.08;36.14
34742;BME280;20968;42.696;23.360;2023-04-22T12:18:07;95006.97;;;21.11;36.80
34742;BME280;20968;42.696;23.360;2023-04-22T12:20:42;94992.16;;;21.03;38.01
34742;BME280;20968;42.696;23.360;2023-04-22T12:23:11;95002.91;;;21.26;37.14
34742;BME280;20968;42.696;23.360;2023-04-22T12:25:39;94992.63;;;21.57;37.38
34742;BME280;20968;42.696;23.360;2023-04-22T12:28:05;94985.06;;;21.44;37.49
34742;BME280;20968;42.696;23.360;2023-04-22T12:30:43;95005.63;;;21.39;38.36
34742;BME280;20968;42.696;23.360;2023-04-22T12:33:43;94990.31;;;21.40;37.85
34742;BME280;20968;42.696;23.360;2023-04-22T12:36:30;94994.75;;;21.36;38.68
34742;BME280;20968;42.696;23.360;2023-04-22T12:38:56;94988.78;;;21.04;38.52
34742;BME280;20968;42.696;23.360;2023-04-22T12:41:46;94992.91;;;20.55;39.80
34742;BME280;20968;42.696;23.360;2023-04-22T12:47:40;94988.56;;;20.95;40.01
34742;BME280;20968;42.696;23.360;2023-04-22T12:50:29;94985.34;;;21.18;38.80
34742;BME280;20968;42.696;23.360;2023-04-22T12:53:04;94981.31;;;20.99;38.67
34742;BME280;20968;42.696;23.360;2023-04-22T12:55:32;94986.41;;;20.80;38.59
34742;BME280;20968;42.696;23.360;2023-04-22T12:58:00;94974.94;;;20.99;38.56
34742;BME280;20968;42.696;23.360;2023-04-22T13:00:29;94976.41;;;21.27;38.08
34742;BME280;20968;42.696;23.360;2023-04-22T13:04:03;94975.47;;;21.60;38.21
34742;BME280;20968;42.696;23.360;2023-04-22T13:06:57;94979.44;;;21.87;36.38
34742;BME280;20968;42.696;23.360;2023-04-22T13:09:47;94969.91;;;21.75;36.10
34742;BME280;20968;42.696;23.360;2023-04-22T13:14:49;94980.78;;;21.93;35.80
34742;BME280;20968;42.696;23.360;2023-04-22T13:17:14;94971.22;;;21.82;35.15
34742;BME280;20968;42.696;23.360;2023-04-22T13:20:03;94973.13;;;21.94;35.73
34742;BME280;20968;42.696;23.360;2023-04-22T13:23:17;94971.66;;;22.15;34.99
34742;BME280;20968;42.696;23.360;2023-04-22T13:28:36;94967.72;;;22.03;35.48
34742;BME280;20968;42.696;23.360;2023-04-22T13:40:53;94979.97;;;22.66;33.16
34742;BME280;20968;42.696;23.360;2023-04-22T13:43:42;94981.09;;;22.77;32.77
34742;BME280;20968;42.696;23.360;2023-04-22T13:46:07;94985.91;;;22.25;33.84
34742;BME280;20968;42.696;23.360;2023-04-22T13:48:39;94978.03;;;22.16;35.01
34742;BME280;20968;42.696;23.360;2023-04-22T13:51:05;94986.69;;;22.48;33.17
34742;BME280;20968;42.696;23.360;2023-04-22T13:53:33;94977.09;;;22.21;32.29
34742;BME280;20968;42.696;23.360;2023-04-22T13:56:15;94975.13;;;21.71;33.66
34742;BME280;20968;42.696;23.360;2023-04-22T13:58:49;94979.19;;;21.55;35.63
34742;BME280;20968;42.696;23.360;2023-04-22T14:04:29;94970.97;;;21.22;35.54